Airfield :
LOGIN :

Register | Disclaimer

   EN    FR    IT 

 










Legend :    VFR   Marginal VFR   IFR   Intensive IFR   Very Intensive IFR
Visi :
Ceiling :
>= 8 km
>= 3000ft
5 to 8 km
1000 to 3000 ft
1500m to 5 km
500 to 1000 ft
800 to 1500m
200 to 500 ft
< 800m
< 200 ft
Symbols :   Thunderstorms  Fog  Heavy snow  Heavy precipitations  Wind > 20 kt
SIGMETs :     Misc.  Thunderstorms  Icing  Turbulence  Mountain Waves  Volcanic Ashes







- Airport Elevation : 56 ft
- IATA code : BZR
- Download approach charts


LFMU - Beziers / Vias

CURRENT METAR :
  • 170530Z AUTO 27005KT CAVOK 21/18 Q1018 NOSIG

EXPIRED METARs :
  • 170500Z AUTO 27005KT CAVOK 21/18 Q1018 NOSIG
  • 170430Z AUTO 28004KT CAVOK 21/18 Q1018 NOSIG
  • 170400Z AUTO 27005KT CAVOK 21/18 Q1018 NOSIG
  • 170330Z AUTO 26004KT 230V290 CAVOK 21/18 Q1018 NOSIG
  • 170300Z AUTO 28006KT CAVOK 22/18 Q1018 NOSIG

TAF TAF LFMU
Valid from the 17 at 03:00 until the 18 at 03:00 UTC


170200Z 1703/1803 29005KT CAVOK
BECMG 1711/1713 18012KT
BECMG 1718/1720 30008KT
ATIS : +33 4 67 90 88 88
No reported NOTAMs for that airfield.



MET'MAP, your aeronautical weather chart ! - Copyright ORBIFLY December 2007 - Disclaimer

ORBIFLY MET'MAP TEAM :

Programming & Development : Alexandra Zaïnal
Concept & Development : Baudouin d'Aumeries
Co-Development & Prog : Marc-Olivier Méhu
Technical & hardware support : Manuel Goepfert

Contact : metmap@orbifly.com




SOURCES & CREDITS :

   NOAA